sensor_id;sensor_type;location;lat;lon;timestamp;pressure;altitude;pressure_sealevel;temperature;humidity
48553;BME280;34335;51.566;6.994;2023-04-24T00:01:34;99460.00;;;9.98;100.00
48553;BME280;34335;51.566;6.994;2023-04-24T00:04:02;99458.34;;;9.94;100.00
48553;BME280;34335;51.566;6.994;2023-04-24T00:06:29;99447.09;;;9.94;100.00
48553;BME280;34335;51.566;6.994;2023-04-24T00:08:59;99443.75;;;9.87;100.00
48553;BME280;34335;51.566;6.994;2023-04-24T00:11:24;99454.13;;;9.87;100.00
48553;BME280;34335;51.566;6.994;2023-04-24T00:13:49;99446.44;;;9.84;100.00
48553;BME280;34335;51.566;6.994;2023-04-24T00:16:15;99444.66;;;9.85;100.00
48553;BME280;34335;51.566;6.994;2023-04-24T00:18:40;99438.59;;;9.86;100.00
48553;BME280;34335;51.566;6.994;2023-04-24T00:21:06;99443.84;;;9.82;100.00
48553;BME280;34335;51.566;6.994;2023-04-24T00:23:32;99450.75;;;9.85;100.00
48553;BME280;34335;51.566;6.994;2023-04-24T00:25:57;99450.66;;;9.88;100.00
48553;BME280;34335;51.566;6.994;2023-04-24T00:28:23;99442.81;;;9.91;100.00
48553;BME280;34335;51.566;6.994;2023-04-24T00:30:48;99445.47;;;9.90;100.00
48553;BME280;34335;51.566;6.994;2023-04-24T00:33:13;99447.13;;;9.92;100.00
48553;BME280;34335;51.566;6.994;2023-04-24T00:35:39;99445.41;;;9.91;100.00
48553;BME280;34335;51.566;6.994;2023-04-24T00:38:05;99442.88;;;9.90;100.00
48553;BME280;34335;51.566;6.994;2023-04-24T00:40:30;99451.53;;;9.87;100.00
48553;BME280;34335;51.566;6.994;2023-04-24T00:42:55;99452.41;;;9.86;100.00
48553;BME280;34335;51.566;6.994;2023-04-24T00:45:21;99446.44;;;9.84;100.00
48553;BME280;34335;51.566;6.994;2023-04-24T00:47:48;99460.25;;;9.85;100.00
48553;BME280;34335;51.566;6.994;2023-04-24T00:50:14;99451.63;;;9.82;100.00
48553;BME280;34335;51.566;6.994;2023-04-24T00:52:40;99461.22;;;9.79;100.00
48553;BME280;34335;51.566;6.994;2023-04-24T00:55:06;99459.53;;;9.76;100.00
48553;BME280;34335;51.566;6.994;2023-04-24T00:57:32;99456.91;;;9.79;100.00
48553;BME280;34335;51.566;6.994;2023-04-24T00:59:58;99463.94;;;9.73;100.00
48553;BME280;34335;51.566;6.994;2023-04-24T01:02:23;99462.22;;;9.72;100.00
48553;BME280;34335;51.566;6.994;2023-04-24T01:04:50;99468.31;;;9.69;100.00
48553;BME280;34335;51.566;6.994;2023-04-24T01:07:19;99471.88;;;9.62;100.00
48553;BME280;34335;51.566;6.994;2023-04-24T01:09:46;99460.69;;;9.58;100.00
48553;BME280;34335;51.566;6.994;2023-04-24T01:12:14;99472.06;;;9.51;100.00
48553;BME280;34335;51.566;6.994;2023-04-24T01:14:40;99462.63;;;9.47;100.00
48553;BME280;34335;51.566;6.994;2023-04-24T01:17:05;99473.94;;;9.43;100.00
48553;BME280;34335;51.566;6.994;2023-04-24T01:19:31;99467.00;;;9.43;100.00
48553;BME280;34335;51.566;6.994;2023-04-24T01:21:58;99467.06;;;9.40;100.00
48553;BME280;34335;51.566;6.994;2023-04-24T01:24:24;99471.44;;;9.37;100.00
48553;BME280;34335;51.566;6.994;2023-04-24T01:26:49;99467.28;;;9.25;100.00
48553;BME280;34335;51.566;6.994;2023-04-24T01:29:14;99469.94;;;9.20;100.00
48553;BME280;34335;51.566;6.994;2023-04-24T01:31:40;99466.63;;;9.12;100.00
48553;BME280;34335;51.566;6.994;2023-04-24T01:34:05;99459.88;;;9.00;100.00
48553;BME280;34335;51.566;6.994;2023-04-24T01:36:31;99459.94;;;8.95;100.00
48553;BME280;34335;51.566;6.994;2023-04-24T01:38:58;99472.13;;;8.88;100.00
48553;BME280;34335;51.566;6.994;2023-04-24T01:41:23;99470.44;;;8.86;100.00
48553;BME280;34335;51.566;6.994;2023-04-24T01:43:49;99462.72;;;8.83;100.00
48553;BME280;34335;51.566;6.994;2023-04-24T01:46:15;99469.78;;;8.70;100.00
48553;BME280;34335;51.566;6.994;2023-04-24T01:48:41;99474.94;;;8.71;100.00
48553;BME280;34335;51.566;6.994;2023-04-24T01:51:06;99464.56;;;8.71;100.00
48553;BME280;34335;51.566;6.994;2023-04-24T01:53:32;99465.47;;;8.69;100.00
48553;BME280;34335;51.566;6.994;2023-04-24T01:55:57;99473.22;;;8.70;100.00
48553;BME280;34335;51.566;6.994;2023-04-24T01:58:23;99474.06;;;8.72;100.00
48553;BME280;34335;51.566;6.994;2023-04-24T02:00:48;99468.13;;;8.64;100.00
48553;BME280;34335;51.566;6.994;2023-04-24T02:03:13;99467.16;;;8.71;100.00
48553;BME280;34335;51.566;6.994;2023-04-24T02:05:39;99470.59;;;8.75;100.00
48553;BME280;34335;51.566;6.994;2023-04-24T02:08:04;99474.94;;;8.73;100.00
48553;BME280;34335;51.566;6.994;2023-04-24T02:10:29;99471.47;;;8.74;100.00
48553;BME280;34335;51.566;6.994;2023-04-24T02:12:54;99473.22;;;8.72;100.00
48553;BME280;34335;51.566;6.994;2023-04-24T02:15:20;99480.06;;;8.78;100.00
48553;BME280;34335;51.566;6.994;2023-04-24T02:17:45;99474.03;;;8.76;100.00
48553;BME280;34335;51.566;6.994;2023-04-24T02:20:11;99480.97;;;8.73;100.00
48553;BME280;34335;51.566;6.994;2023-04-24T02:22:36;99485.38;;;8.68;100.00
48553;BME280;34335;51.566;6.994;2023-04-24T02:25:01;99480.19;;;8.67;100.00
48553;BME280;34335;51.566;6.994;2023-04-24T02:27:27;99485.38;;;8.68;100.00
48553;BME280;34335;51.566;6.994;2023-04-24T02:29:52;99477.59;;;8.68;100.00
48553;BME280;34335;51.566;6.994;2023-04-24T02:32:17;99481.09;;;8.64;100.00
48553;BME280;34335;51.566;6.994;2023-04-24T02:34:43;99476.88;;;8.57;100.00
48553;BME280;34335;51.566;6.994;2023-04-24T02:37:08;99475.97;;;8.60;100.00
48553;BME280;34335;51.566;6.994;2023-04-24T02:39:33;99475.91;;;8.64;100.00
48553;BME280;34335;51.566;6.994;2023-04-24T02:41:58;99473.31;;;8.64;100.00
48553;BME280;34335;51.566;6.994;2023-04-24T02:44:24;99489.91;;;8.51;100.00
48553;BME280;34335;51.566;6.994;2023-04-24T02:46:49;99474.28;;;8.57;100.00
48553;BME280;34335;51.566;6.994;2023-04-24T02:49:14;99469.13;;;8.55;100.00
48553;BME280;34335;51.566;6.994;2023-04-24T02:51:40;99469.06;;;8.60;100.00
48553;BME280;34335;51.566;6.994;2023-04-24T02:54:07;99474.28;;;8.57;100.00
48553;BME280;34335;51.566;6.994;2023-04-24T02:56:33;99481.25;;;8.53;100.00
48553;BME280;34335;51.566;6.994;2023-04-24T02:58:58;99483.84;;;8.50;100.00
48553;BME280;34335;51.566;6.994;2023-04-24T03:01:23;99477.78;;;8.53;100.00
48553;BME280;34335;51.566;6.994;2023-04-24T03:03:48;99478.59;;;8.56;100.00
48553;BME280;34335;51.566;6.994;2023-04-24T03:06:14;99491.59;;;8.52;100.00
48553;BME280;34335;51.566;6.994;2023-04-24T03:08:40;99489.91;;;8.51;100.00
48553;BME280;34335;51.566;6.994;2023-04-24T03:11:05;99482.97;;;8.53;100.00
48553;BME280;34335;51.566;6.994;2023-04-24T03:13:31;99489.84;;;8.54;100.00
48553;BME280;34335;51.566;6.994;2023-04-24T03:15:56;99493.22;;;8.61;100.00
48553;BME280;34335;51.566;6.994;2023-04-24T03:18:21;99484.66;;;8.57;100.00
48553;BME280;34335;51.566;6.994;2023-04-24T03:20:47;99495.09;;;8.49;100.00
48553;BME280;34335;51.566;6.994;2023-04-24T03:23:12;99499.44;;;8.44;100.00
48553;BME280;34335;51.566;6.994;2023-04-24T03:25:37;99500.25;;;8.52;100.00
48553;BME280;34335;51.566;6.994;2023-04-24T03:28:03;99493.28;;;8.56;100.00
48553;BME280;34335;51.566;6.994;2023-04-24T03:30:28;99500.28;;;8.49;100.00
48553;BME280;34335;51.566;6.994;2023-04-24T03:32:53;99495.13;;;8.48;100.00
48553;BME280;34335;51.566;6.994;2023-04-24T03:35:18;99502.03;;;8.42;100.00
48553;BME280;34335;51.566;6.994;2023-04-24T03:37:44;99494.28;;;8.44;100.00
48553;BME280;34335;51.566;6.994;2023-04-24T03:40:09;99499.47;;;8.41;100.00
48553;BME280;34335;51.566;6.994;2023-04-24T03:42:35;99496.84;;;8.46;100.00
48553;BME280;34335;51.566;6.994;2023-04-24T03:45:00;99502.94;;;8.40;100.00
48553;BME280;34335;51.566;6.994;2023-04-24T03:47:25;99500.31;;;8.48;100.00
48553;BME280;34335;51.566;6.994;2023-04-24T03:49:50;99498.56;;;8.47;100.00
48553;BME280;34335;51.566;6.994;2023-04-24T03:52:16;99496.84;;;8.49;100.00
48553;BME280;34335;51.566;6.994;2023-04-24T03:54:42;99495.97;;;8.47;100.00
48553;BME280;34335;51.566;6.994;2023-04-24T03:57:07;99502.03;;;8.49;100.00
48553;BME280;34335;51.566;6.994;2023-04-24T03:59:32;99497.72;;;8.43;100.00
48553;BME280;34335;51.566;6.994;2023-04-24T04:01:57;99502.03;;;8.42;100.00
48553;BME280;34335;51.566;6.994;2023-04-24T04:04:23;99502.94;;;8.40;100.00
48553;BME280;34335;51.566;6.994;2023-04-24T04:06:48;99493.41;;;8.43;100.00
48553;BME280;34335;51.566;6.994;2023-04-24T04:09:14;99496.84;;;8.47;100.00
48553;BME280;34335;51.566;6.994;2023-04-24T04:11:39;99495.13;;;8.45;100.00
48553;BME280;34335;51.566;6.994;2023-04-24T04:14:04;99500.34;;;8.41;100.00
48553;BME280;34335;51.566;6.994;2023-04-24T04:16:30;99500.31;;;8.48;100.00
48553;BME280;34335;51.566;6.994;2023-04-24T04:18:56;99507.19;;;8.47;100.00
48553;BME280;34335;51.566;6.994;2023-04-24T04:21:21;99503.75;;;8.50;100.00
48553;BME280;34335;51.566;6.994;2023-04-24T04:23:46;99501.16;;;8.48;100.00
48553;BME280;34335;51.566;6.994;2023-04-24T04:26:12;99504.63;;;8.44;100.00
48553;BME280;34335;51.566;6.994;2023-04-24T04:28:38;99513.25;;;8.45;100.00
48553;BME280;34335;51.566;6.994;2023-04-24T04:31:04;99506.34;;;8.45;100.00
48553;BME280;34335;51.566;6.994;2023-04-24T04:33:29;99508.06;;;8.46;100.00
48553;BME280;34335;51.566;6.994;2023-04-24T04:35:56;99501.19;;;8.45;100.00
48553;BME280;34335;51.566;6.994;2023-04-24T04:38:23;99506.34;;;8.48;100.00
48553;BME280;34335;51.566;6.994;2023-04-24T04:40:49;99515.78;;;8.54;100.00
48553;BME280;34335;51.566;6.994;2023-04-24T04:43:14;99517.50;;;8.52;100.00
48553;BME280;34335;51.566;6.994;2023-04-24T04:45:41;99519.19;;;8.57;100.00
48553;BME280;34335;51.566;6.994;2023-04-24T04:48:08;99518.31;;;8.60;100.00
48553;BME280;34335;51.566;6.994;2023-04-24T04:50:35;99518.31;;;8.60;100.00
48553;BME280;34335;51.566;6.994;2023-04-24T04:53:00;99519.94;;;8.66;100.00
48553;BME280;34335;51.566;6.994;2023-04-24T04:55:26;99514.75;;;8.66;100.00
48553;BME280;34335;51.566;6.994;2023-04-24T04:57:51;99529.53;;;8.59;100.00
48553;BME280;34335;51.566;6.994;2023-04-24T05:00:17;99524.41;;;8.53;100.00
48553;BME280;34335;51.566;6.994;2023-04-24T05:02:42;99525.31;;;8.50;100.00
48553;BME280;34335;51.566;6.994;2023-04-24T05:05:08;99529.66;;;8.47;100.00
48553;BME280;34335;51.566;6.994;2023-04-24T05:07:33;99521.84;;;8.51;100.00
48553;BME280;34335;51.566;6.994;2023-04-24T05:09:59;99527.00;;;8.53;100.00
48553;BME280;34335;51.566;6.994;2023-04-24T05:12:24;99523.28;;;8.76;100.00
48553;BME280;34335;51.566;6.994;2023-04-24T05:14:50;99518.91;;;8.82;100.00
48553;BME280;34335;51.566;6.994;2023-04-24T05:17:15;99518.97;;;8.75;100.00
48553;BME280;34335;51.566;6.994;2023-04-24T05:19:41;99520.69;;;8.79;100.00
48553;BME280;34335;51.566;6.994;2023-04-24T05:22:08;99529.50;;;8.62;100.00
48553;BME280;34335;51.566;6.994;2023-04-24T05:24:35;99537.38;;;8.53;100.00
48553;BME280;34335;51.566;6.994;2023-04-24T05:27:01;99530.38;;;8.60;100.00
48553;BME280;34335;51.566;6.994;2023-04-24T05:29:27;99538.25;;;8.52;100.00
48553;BME280;34335;51.566;6.994;2023-04-24T05:31:52;99533.91;;;8.54;100.00
48553;BME280;34335;51.566;6.994;2023-04-24T05:34:18;99541.75;;;8.48;100.00
48553;BME280;34335;51.566;6.994;2023-04-24T05:36:43;99540.94;;;8.38;100.00
48553;BME280;34335;51.566;6.994;2023-04-24T05:39:08;99546.19;;;8.35;100.00
48553;BME280;34335;51.566;6.994;2023-04-24T05:41:34;99543.56;;;8.36;100.00
48553;BME280;34335;51.566;6.994;2023-04-24T05:43:59;99550.66;;;8.19;100.00
48553;BME280;34335;51.566;6.994;2023-04-24T05:46:25;99553.31;;;8.13;100.00
48553;BME280;34335;51.566;6.994;2023-04-24T05:48:50;99543.75;;;8.21;100.00
48553;BME280;34335;51.566;6.994;2023-04-24T05:51:15;99551.59;;;8.11;100.00
48553;BME280;34335;51.566;6.994;2023-04-24T05:53:41;99554.22;;;8.07;100.00
48553;BME280;34335;51.566;6.994;2023-04-24T05:56:06;99557.75;;;7.98;100.00
48553;BME280;34335;51.566;6.994;2023-04-24T05:58:31;99551.75;;;7.94;100.00
48553;BME280;34335;51.566;6.994;2023-04-24T06:00:56;99546.63;;;7.87;100.00
48553;BME280;34335;51.566;6.994;2023-04-24T06:03:23;99562.94;;;7.98;100.00
48553;BME280;34335;51.566;6.994;2023-04-24T06:05:50;99552.63;;;7.90;100.00
48553;BME280;34335;51.566;6.994;2023-04-24T06:08:16;99551.72;;;7.98;100.00
48553;BME280;34335;51.566;6.994;2023-04-24T06:10:41;99543.88;;;8.05;100.00
48553;BME280;34335;51.566;6.994;2023-04-24T06:13:06;99549.03;;;8.05;100.00
48553;BME280;34335;51.566;6.994;2023-04-24T06:15:33;99540.41;;;8.06;100.00
48553;BME280;34335;51.566;6.994;2023-04-24T06:17:58;99544.00;;;7.91;100.00
48553;BME280;34335;51.566;6.994;2023-04-24T06:20:24;99539.59;;;8.00;100.00
48553;BME280;34335;51.566;6.994;2023-04-24T06:22:49;99553.31;;;8.13;100.00
48553;BME280;34335;51.566;6.994;2023-04-24T06:25:15;99549.81;;;8.14;100.00
48553;BME280;34335;51.566;6.994;2023-04-24T06:27:41;99559.38;;;8.11;100.00
48553;BME280;34335;51.566;6.994;2023-04-24T06:30:06;99549.78;;;8.20;100.00
48553;BME280;34335;51.566;6.994;2023-04-24T06:32:32;99552.38;;;8.20;100.00
48553;BME280;34335;51.566;6.994;2023-04-24T06:34:57;99540.34;;;8.14;100.00
48553;BME280;34335;51.566;6.994;2023-04-24T06:37:22;99550.72;;;8.13;100.00
48553;BME280;34335;51.566;6.994;2023-04-24T06:39:48;99554.22;;;8.05;100.00
48553;BME280;34335;51.566;6.994;2023-04-24T06:42:13;99558.63;;;7.94;100.00
48553;BME280;34335;51.566;6.994;2023-04-24T06:44:38;99548.38;;;7.86;100.00
48553;BME280;34335;51.566;6.994;2023-04-24T06:47:07;99548.41;;;7.78;100.00
48553;BME280;34335;51.566;6.994;2023-04-24T06:49:33;99538.75;;;8.02;100.00
48553;BME280;34335;51.566;6.994;2023-04-24T06:51:58;99544.69;;;8.10;100.00
48553;BME280;34335;51.566;6.994;2023-04-24T06:54:23;99542.91;;;8.17;100.00
48553;BME280;34335;51.566;6.994;2023-04-24T06:56:49;99542.81;;;8.26;100.00
48553;BME280;34335;51.566;6.994;2023-04-24T06:59:16;99540.31;;;8.16;100.00
48553;BME280;34335;51.566;6.994;2023-04-24T07:01:41;99536.88;;;8.17;100.00
48553;BME280;34335;51.566;6.994;2023-04-24T07:04:06;99536.06;;;8.11;100.00
48553;BME280;34335;51.566;6.994;2023-04-24T07:06:32;99541.09;;;8.24;100.00
48553;BME280;34335;51.566;6.994;2023-04-24T07:08:57;99549.97;;;8.00;100.00
48553;BME280;34335;51.566;6.994;2023-04-24T07:11:23;99535.25;;;8.03;100.00
48553;BME280;34335;51.566;6.994;2023-04-24T07:13:48;99542.31;;;7.86;100.00
48553;BME280;34335;51.566;6.994;2023-04-24T07:16:14;99541.22;;;8.10;100.00
48553;BME280;34335;51.566;6.994;2023-04-24T07:18:39;99541.28;;;8.05;100.00
48553;BME280;34335;51.566;6.994;2023-04-24T07:21:04;99535.31;;;8.00;100.00
48553;BME280;34335;51.566;6.994;2023-04-24T07:23:30;99549.22;;;7.85;100.00
48553;BME280;34335;51.566;6.994;2023-04-24T07:25:56;99550.09;;;7.84;100.00
48553;BME280;34335;51.566;6.994;2023-04-24T07:28:21;99560.47;;;7.81;100.00
48553;BME280;34335;51.566;6.994;2023-04-24T07:30:46;99555.34;;;7.76;100.00
48553;BME280;34335;51.566;6.994;2023-04-24T07:33:12;99566.59;;;7.69;100.00
48553;BME280;34335;51.566;6.994;2023-04-24T07:35:38;99562.38;;;7.56;100.00
48553;BME280;34335;51.566;6.994;2023-04-24T07:38:03;99563.94;;;7.78;100.00
48553;BME280;34335;51.566;6.994;2023-04-24T07:40:29;99565.75;;;7.69;100.00
48553;BME280;34335;51.566;6.994;2023-04-24T07:42:54;99571.78;;;7.72;100.00
48553;BME280;34335;51.566;6.994;2023-04-24T07:45:19;99564.75;;;7.87;100.00
48553;BME280;34335;51.566;6.994;2023-04-24T07:47:45;99570.78;;;7.89;100.00
48553;BME280;34335;51.566;6.994;2023-04-24T07:50:11;99572.50;;;7.87;100.00
48553;BME280;34335;51.566;6.994;2023-04-24T07:52:38;99576.00;;;7.83;100.00
48553;BME280;34335;51.566;6.994;2023-04-24T07:55:03;99571.91;;;7.54;100.00
48553;BME280;34335;51.566;6.994;2023-04-24T07:57:29;99578.66;;;7.73;100.00
48553;BME280;34335;51.566;6.994;2023-04-24T07:59:55;99571.88;;;7.57;100.00
48553;BME280;34335;51.566;6.994;2023-04-24T08:02:20;99577.88;;;7.60;100.00
48553;BME280;34335;51.566;6.994;2023-04-24T08:04:51;99581.28;;;7.70;100.00
48553;BME280;34335;51.566;6.994;2023-04-24T08:07:16;99590.81;;;7.59;100.00
48553;BME280;34335;51.566;6.994;2023-04-24T08:09:42;99585.72;;;7.46;100.00
48553;BME280;34335;51.566;6.994;2023-04-24T08:12:07;99592.69;;;7.38;100.00
48553;BME280;34335;51.566;6.994;2023-04-24T08:14:32;99589.22;;;7.36;100.00
48553;BME280;34335;51.566;6.994;2023-04-24T08:16:57;99598.63;;;7.53;100.00
48553;BME280;34335;51.566;6.994;2023-04-24T08:19:25;99599.50;;;7.48;100.00
48553;BME280;34335;51.566;6.994;2023-04-24T08:21:50;99607.28;;;7.45;100.00
48553;BME280;34335;51.566;6.994;2023-04-24T08:24:15;99608.22;;;7.37;100.00
48553;BME280;34335;51.566;6.994;2023-04-24T08:26:41;99609.91;;;7.39;100.00
48553;BME280;34335;51.566;6.994;2023-04-24T08:29:06;99615.22;;;7.14;100.00
48553;BME280;34335;51.566;6.994;2023-04-24T08:31:32;99629.00;;;7.13;100.00
48553;BME280;34335;51.566;6.994;2023-04-24T08:33:57;99629.03;;;7.10;100.00
48553;BME280;34335;51.566;6.994;2023-04-24T08:36:22;99636.81;;;6.96;100.00
48553;BME280;34335;51.566;6.994;2023-04-24T08:38:48;99640.31;;;6.92;100.00
48553;BME280;34335;51.566;6.994;2023-04-24T08:41:14;99644.53;;;7.07;100.00
48553;BME280;34335;51.566;6.994;2023-04-24T08:43:41;99648.81;;;7.13;100.00
48553;BME280;34335;51.566;6.994;2023-04-24T08:46:07;99641.03;;;7.24;100.00
48553;BME280;34335;51.566;6.994;2023-04-24T08:48:33;99642.78;;;7.18;100.00
48553;BME280;34335;51.566;6.994;2023-04-24T08:50:59;99641.03;;;7.24;100.00
48553;BME280;34335;51.566;6.994;2023-04-24T08:53:25;99644.50;;;7.20;100.00
48553;BME280;34335;51.566;6.994;2023-04-24T08:55:51;99641.94;;;7.13;100.00
48553;BME280;34335;51.566;6.994;2023-04-24T08:58:19;99656.56;;;7.17;100.00
48553;BME280;34335;51.566;6.994;2023-04-24T09:00:44;99654.81;;;7.27;100.00
48553;BME280;34335;51.566;6.994;2023-04-24T09:03:13;99661.66;;;7.42;100.00
48553;BME280;34335;51.566;6.994;2023-04-24T09:05:39;99674.53;;;7.45;100.00
48553;BME280;34335;51.566;6.994;2023-04-24T09:08:10;99675.44;;;7.44;100.00
48553;BME280;34335;51.566;6.994;2023-04-24T09:10:39;99684.91;;;7.50;100.00
48553;BME280;34335;51.566;6.994;2023-04-24T09:13:04;99699.50;;;7.62;100.00
48553;BME280;34335;51.566;6.994;2023-04-24T09:15:31;99698.59;;;7.69;100.00
48553;BME280;34335;51.566;6.994;2023-04-24T09:17:56;99707.19;;;7.73;100.00
48553;BME280;34335;51.566;6.994;2023-04-24T09:20:22;99708.91;;;7.78;100.00
48553;BME280;34335;51.566;6.994;2023-04-24T09:22:47;99728.75;;;7.76;100.00
48553;BME280;34335;51.566;6.994;2023-04-24T09:25:12;99723.59;;;7.73;100.00
48553;BME280;34335;51.566;6.994;2023-04-24T09:27:42;99729.59;;;7.75;100.00
48553;BME280;34335;51.566;6.994;2023-04-24T09:30:09;99728.78;;;7.73;100.00
48553;BME280;34335;51.566;6.994;2023-04-24T09:32:34;99742.53;;;7.80;100.00
48553;BME280;34335;51.566;6.994;2023-04-24T09:35:14;99740.75;;;7.90;100.00
48553;BME280;34335;51.566;6.994;2023-04-24T09:37:42;99757.19;;;7.84;100.00
48553;BME280;34335;51.566;6.994;2023-04-24T09:40:14;99782.22;;;7.82;100.00
48553;BME280;34335;51.566;6.994;2023-04-24T09:42:45;99783.91;;;7.85;100.00
48553;BME280;34335;51.566;6.994;2023-04-24T09:45:11;99794.31;;;7.75;100.00
48553;BME280;34335;51.566;6.994;2023-04-24T09:47:38;99795.25;;;7.62;100.00
48553;BME280;34335;51.566;6.994;2023-04-24T09:50:11;99815.09;;;7.57;100.00
48553;BME280;34335;51.566;6.994;2023-04-24T09:52:39;99816.00;;;7.40;100.00
48553;BME280;34335;51.566;6.994;2023-04-24T09:55:14;99828.88;;;7.56;100.00
48553;BME280;34335;51.566;6.994;2023-04-24T09:57:51;99847.00;;;7.46;100.00
48553;BME280;34335;51.566;6.994;2023-04-24T10:00:21;99850.47;;;7.53;100.00
48553;BME280;34335;51.566;6.994;2023-04-24T10:02:54;99858.25;;;7.35;100.00
48553;BME280;34335;51.566;6.994;2023-04-24T10:05:23;99864.28;;;7.37;100.00
48553;BME280;34335;51.566;6.994;2023-04-24T10:07:49;99873.75;;;7.47;100.00
48553;BME280;34335;51.566;6.994;2023-04-24T10:10:15;99872.88;;;7.54;100.00
48553;BME280;34335;51.566;6.994;2023-04-24T10:12:41;99879.78;;;7.51;100.00
48553;BME280;34335;51.566;6.994;2023-04-24T10:15:09;99889.28;;;7.55;100.00
48553;BME280;34335;51.566;6.994;2023-04-24T10:17:37;99901.38;;;7.34;100.00
48553;BME280;34335;51.566;6.994;2023-04-24T10:20:04;99888.41;;;7.57;100.00
48553;BME280;34335;51.566;6.994;2023-04-24T10:22:32;99901.31;;;7.71;100.00
48553;BME280;34335;51.566;6.994;2023-04-24T10:24:58;99903.94;;;7.62;100.00
48553;BME280;34335;51.566;6.994;2023-04-24T10:27:25;99912.56;;;7.52;100.00
48553;BME280;34335;51.566;6.994;2023-04-24T10:29:52;99914.25;;;7.65;100.00
48553;BME280;34335;51.566;6.994;2023-04-24T10:32:18;99924.63;;;7.67;100.00
48553;BME280;34335;51.566;6.994;2023-04-24T10:34:43;99917.72;;;7.48;100.00
48553;BME280;34335;51.566;6.994;2023-04-24T10:37:08;99923.78;;;7.58;100.00
48553;BME280;34335;51.566;6.994;2023-04-24T10:39:34;99933.28;;;7.52;100.00
48553;BME280;34335;51.566;6.994;2023-04-24T10:42:00;99925.50;;;7.58;100.00
48553;BME280;34335;51.566;6.994;2023-04-24T10:44:35;99930.66;;;7.45;100.00
48553;BME280;34335;51.566;6.994;2023-04-24T10:47:01;99939.31;;;7.51;100.00
48553;BME280;34335;51.566;6.994;2023-04-24T10:49:30;99946.19;;;7.70;100.00
48553;BME280;34335;51.566;6.994;2023-04-24T10:52:01;99947.91;;;7.54;100.00
48553;BME280;34335;51.566;6.994;2023-04-24T10:54:29;99958.28;;;7.31;100.00
48553;BME280;34335;51.566;6.994;2023-04-24T10:59:49;99962.59;;;7.68;100.00
48553;BME280;34335;51.566;6.994;2023-04-24T11:02:16;99967.78;;;7.58;100.00
48553;BME280;34335;51.566;6.994;2023-04-24T11:04:42;99974.66;;;7.33;100.00
48553;BME280;34335;51.566;6.994;2023-04-24T11:07:09;99978.13;;;7.37;100.00
48553;BME280;34335;51.566;6.994;2023-04-24T11:09:35;99988.47;;;7.41;100.00
48553;BME280;34335;51.566;6.994;2023-04-24T11:12:08;99992.75;;;7.58;100.00
48553;BME280;34335;51.566;6.994;2023-04-24T11:17:33;99996.22;;;7.75;100.00
48553;BME280;34335;51.566;6.994;2023-04-24T11:20:11;99991.91;;;7.80;100.00
48553;BME280;34335;51.566;6.994;2023-04-24T11:22:39;99994.50;;;7.93;100.00
48553;BME280;34335;51.566;6.994;2023-04-24T11:25:08;99992.69;;;8.14;100.00
48553;BME280;34335;51.566;6.994;2023-04-24T11:27:44;99996.13;;;8.28;100.00
48553;BME280;34335;51.566;6.994;2023-04-24T11:30:17;99994.28;;;8.64;100.00
48553;BME280;34335;51.566;6.994;2023-04-24T11:32:43;99995.16;;;8.66;100.00
48553;BME280;34335;51.566;6.994;2023-04-24T11:35:13;100010.75;;;8.55;100.00
48553;BME280;34335;51.566;6.994;2023-04-24T11:37:40;100008.97;;;8.70;100.00
48553;BME280;34335;51.566;6.994;2023-04-24T11:40:08;100003.72;;;8.79;100.00
48553;BME280;34335;51.566;6.994;2023-04-24T11:42:41;100008.94;;;8.73;100.00
48553;BME280;34335;51.566;6.994;2023-04-24T11:45:12;100015.00;;;8.70;100.00
48553;BME280;34335;51.566;6.994;2023-04-24T11:47:38;100030.53;;;8.80;100.00
48553;BME280;34335;51.566;6.994;2023-04-24T11:50:07;100066.03;;;8.48;100.00
48553;BME280;34335;51.566;6.994;2023-04-24T11:52:36;100029.78;;;8.51;100.00
48553;BME280;34335;51.566;6.994;2023-04-24T11:55:02;100042.72;;;8.56;100.00
48553;BME280;34335;51.566;6.994;2023-04-24T11:57:28;100034.84;;;8.76;100.00
48553;BME280;34335;51.566;6.994;2023-04-24T11:59:59;100040.13;;;8.59;100.00
48553;BME280;34335;51.566;6.994;2023-04-24T12:02:25;100044.41;;;8.66;100.00
48553;BME280;34335;51.566;6.994;2023-04-24T12:04:54;100047.00;;;8.65;100.00
48553;BME280;34335;51.566;6.994;2023-04-24T12:07:20;100053.91;;;8.72;100.00
48553;BME280;34335;51.566;6.994;2023-04-24T12:09:47;100051.25;;;8.83;100.00
48553;BME280;34335;51.566;6.994;2023-04-24T12:12:14;100052.94;;;8.93;100.00
48553;BME280;34335;51.566;6.994;2023-04-24T12:14:52;100065.16;;;8.65;100.00
48553;BME280;34335;51.566;6.994;2023-04-24T12:17:26;100065.88;;;8.96;100.00
48553;BME280;34335;51.566;6.994;2023-04-24T12:19:51;100073.81;;;8.48;100.00
48553;BME280;34335;51.566;6.994;2023-04-24T12:22:17;100079.84;;;8.41;100.00
48553;BME280;34335;51.566;6.994;2023-04-24T12:24:58;100071.22;;;8.56;100.00
48553;BME280;34335;51.566;6.994;2023-04-24T12:27:24;100088.50;;;8.43;100.00
48553;BME280;34335;51.566;6.994;2023-04-24T12:29:55;100092.78;;;8.66;100.00
48553;BME280;34335;51.566;6.994;2023-04-24T12:32:20;100082.47;;;8.27;100.00
48553;BME280;34335;51.566;6.994;2023-04-24T12:34:46;100097.13;;;8.42;100.00
48553;BME280;34335;51.566;6.994;2023-04-24T12:37:11;100096.25;;;8.58;100.00
48553;BME280;34335;51.566;6.994;2023-04-24T12:39:38;100106.63;;;8.35;100.00
48553;BME280;34335;51.566;6.994;2023-04-24T12:42:03;100104.91;;;8.53;100.00
48553;BME280;34335;51.566;6.994;2023-04-24T12:44:32;100098.81;;;8.74;100.00
48553;BME280;34335;51.566;6.994;2023-04-24T12:47:00;100109.97;;;8.93;100.00
48553;BME280;34335;51.566;6.994;2023-04-24T12:49:26;100109.09;;;9.00;100.00
48553;BME280;34335;51.566;6.994;2023-04-24T12:51:51;100109.91;;;9.12;100.00
48553;BME280;34335;51.566;6.994;2023-04-24T12:54:16;100110.00;;;8.92;100.00
48553;BME280;34335;51.566;6.994;2023-04-24T12:56:41;100112.53;;;8.99;100.00
48553;BME280;34335;51.566;6.994;2023-04-24T12:59:07;100116.91;;;8.94;100.00
48553;BME280;34335;51.566;6.994;2023-04-24T13:01:32;100117.78;;;8.84;100.00